Time;durP1;ratioP1;P1;durP2;ratioP2;P2;SDS_P1;SDS_P2;PMS_P1;PMS_P2;Temp;Humidity;BMP_temperature;BMP_pressure;BME280_temperature;BME280_humidity;BME280_pressure;Samples;Min_cycle;Max_cycle;Signal;HPM_P1;HPM_P2
2023/05/07 00:01:43;;;;;;;3.50;3.40;;;15.30;99.90;;;;;;5149929;27;20455;-67
2023/05/07 00:04:10;;;;;;;3.63;3.53;;;15.30;99.90;;;;;;5138486;27;20483;-68
2023/05/07 00:06:39;;;;;;;3.30;3.20;;;15.30;99.90;;;;;;5144341;27;20863;-68
2023/05/07 00:09:06;;;;;;;3.47;3.37;;;15.30;99.90;;;;;;5137252;27;21035;-68
2023/05/07 00:11:34;;;;;;;3.93;3.83;;;15.30;99.90;;;;;;5141270;27;20470;-68
2023/05/07 00:14:01;;;;;;;4.90;4.50;;;15.30;99.90;;;;;;5147727;27;20965;-68
2023/05/07 00:16:28;;;;;;;3.10;3.00;;;15.30;99.90;;;;;;5147527;27;20829;-68
2023/05/07 00:18:55;;;;;;;3.50;3.40;;;15.30;99.90;;;;;;5150079;27;20459;-67
2023/05/07 00:21:26;;;;;;;3.50;3.40;;;15.30;99.90;;;;;;5137359;27;20455;-68
2023/05/07 00:23:55;;;;;;;3.70;3.60;;;15.20;99.90;;;;;;5137789;27;20468;-68
2023/05/07 00:26:22;;;;;;;3.27;3.17;;;15.20;99.90;;;;;;5140082;27;20464;-68
2023/05/07 00:28:51;;;;;;;3.07;2.97;;;15.10;99.90;;;;;;5150954;27;20455;-68
2023/05/07 00:31:17;;;;;;;3.07;2.97;;;15.10;99.90;;;;;;5151264;27;20876;-68
2023/05/07 00:33:44;;;;;;;3.33;3.23;;;15.20;99.90;;;;;;5141644;27;20548;-67
2023/05/07 00:36:11;;;;;;;2.73;2.63;;;15.20;99.90;;;;;;5139128;27;21138;-68
2023/05/07 00:38:39;;;;;;;3.00;2.90;;;15.20;99.90;;;;;;5145825;27;20870;-68
2023/05/07 00:41:08;;;;;;;3.10;3.00;;;15.20;99.90;;;;;;5142736;27;20460;-69
2023/05/07 00:43:34;;;;;;;3.40;3.30;;;15.20;99.90;;;;;;5146852;27;20455;-68
2023/05/07 00:46:03;;;;;;;3.30;3.20;;;15.20;99.90;;;;;;5142994;27;20508;-68
2023/05/07 00:48:32;;;;;;;3.10;3.00;;;15.20;99.90;;;;;;5138798;27;20466;-68
2023/05/07 00:50:59;;;;;;;3.13;3.03;;;15.10;99.90;;;;;;5144383;27;20448;-68
2023/05/07 00:53:26;;;;;;;3.13;3.03;;;15.20;99.90;;;;;;5146672;27;20982;-68
2023/05/07 00:55:53;;;;;;;2.87;2.77;;;15.20;99.90;;;;;;5133083;27;20563;-68
2023/05/07 00:58:22;;;;;;;3.33;3.23;;;15.20;99.90;;;;;;5142974;27;20466;-68
2023/05/07 01:00:49;;;;;;;3.20;3.10;;;15.20;99.90;;;;;;5142047;27;20463;-68
2023/05/07 01:03:16;;;;;;;3.47;3.37;;;15.30;99.90;;;;;;5149347;27;20575;-69
2023/05/07 01:05:46;;;;;;;3.43;3.33;;;15.30;99.90;;;;;;5142802;27;21082;-68
2023/05/07 01:08:15;;;;;;;3.40;3.30;;;15.40;99.90;;;;;;5138750;27;20769;-67
2023/05/07 01:10:42;;;;;;;3.20;3.10;;;15.30;99.90;;;;;;5149251;27;20466;-68
2023/05/07 01:13:10;;;;;;;3.87;3.67;;;15.20;99.90;;;;;;5138305;27;20572;-68
2023/05/07 01:15:40;;;;;;;2.97;2.87;;;15.10;99.90;;;;;;5148127;27;20481;-68
2023/05/07 01:18:07;;;;;;;3.10;3.00;;;15.00;99.90;;;;;;5145394;27;20945;-68
2023/05/07 01:20:34;;;;;;;2.80;2.70;;;15.00;99.90;;;;;;5144259;27;20463;-68
2023/05/07 01:23:04;;;;;;;3.10;3.00;;;15.00;99.90;;;;;;5137439;27;20476;-68
2023/05/07 01:25:33;;;;;;;2.97;2.87;;;15.00;99.90;;;;;;5140730;27;20860;-68
2023/05/07 01:28:01;;;;;;;2.90;2.80;;;15.10;99.90;;;;;;5143190;27;20826;-68
2023/05/07 01:30:29;;;;;;;3.10;3.00;;;15.10;99.90;;;;;;5133583;27;20474;-68
2023/05/07 01:33:02;;;;;;;3.10;3.00;;;15.10;99.90;;;;;;5145566;27;20487;-69
2023/05/07 01:35:34;;;;;;;3.00;2.90;;;15.10;99.90;;;;;;5137326;27;20456;-68
2023/05/07 01:38:04;;;;;;;3.37;3.27;;;15.10;99.90;;;;;;5143987;27;20467;-68
2023/05/07 01:40:31;;;;;;;3.70;3.60;;;15.10;99.90;;;;;;5149448;27;20450;-68
2023/05/07 01:42:58;;;;;;;3.73;3.63;;;15.20;99.90;;;;;;5143124;27;20878;-68
2023/05/07 01:45:26;;;;;;;3.40;3.30;;;15.20;99.90;;;;;;5142078;27;20538;-68
2023/05/07 01:47:54;;;;;;;3.50;3.40;;;15.20;99.90;;;;;;5138724;27;20479;-68
2023/05/07 01:50:21;;;;;;;3.40;3.30;;;15.20;99.90;;;;;;5139317;27;20456;-67
2023/05/07 01:52:50;;;;;;;3.30;3.20;;;15.10;99.90;;;;;;5141548;27;20953;-68
2023/05/07 01:55:20;;;;;;;3.50;3.40;;;15.10;99.90;;;;;;5146514;27;20466;-68
2023/05/07 01:57:47;;;;;;;3.30;3.20;;;15.00;99.90;;;;;;5143459;27;20459;-68
2023/05/07 02:00:17;;;;;;;3.60;3.50;;;15.00;99.90;;;;;;5137232;27;20460;-68
2023/05/07 02:02:44;;;;;;;3.50;3.40;;;15.00;99.90;;;;;;5144194;27;20463;-68
2023/05/07 02:05:11;;;;;;;4.10;4.00;;;15.00;99.90;;;;;;5141680;27;20467;-68
2023/05/07 02:07:38;;;;;;;3.93;3.83;;;15.00;99.90;;;;;;5145236;27;20469;-67
2023/05/07 02:10:06;;;;;;;3.40;3.30;;;15.00;99.90;;;;;;5138105;27;20463;-68
2023/05/07 02:12:35;;;;;;;4.20;4.10;;;14.90;99.90;;;;;;5149166;27;20834;-67
2023/05/07 02:15:03;;;;;;;4.10;4.00;;;14.80;99.90;;;;;;5135122;27;20575;-68
2023/05/07 02:17:31;;;;;;;4.17;4.07;;;14.80;99.90;;;;;;5145073;27;20548;-68
2023/05/07 02:20:00;;;;;;;4.53;4.43;;;14.70;99.90;;;;;;5135969;27;20488;-67
2023/05/07 02:22:27;;;;;;;4.00;3.90;;;14.70;99.90;;;;;;5142176;27;20482;-68
2023/05/07 02:24:54;;;;;;;4.47;4.37;;;14.60;99.90;;;;;;5136031;27;20485;-67
2023/05/07 02:27:22;;;;;;;4.07;3.97;;;14.50;99.90;;;;;;5148103;27;20453;-68
2023/05/07 02:29:50;;;;;;;5.03;4.87;;;14.50;99.90;;;;;;5145331;27;21064;-68
2023/05/07 02:32:16;;;;;;;3.80;3.70;;;14.50;99.90;;;;;;5143199;27;20451;-68
2023/05/07 02:34:43;;;;;;;4.60;4.50;;;14.40;99.90;;;;;;5141515;27;20503;-68
2023/05/07 02:37:10;;;;;;;4.37;4.27;;;14.40;99.90;;;;;;5135741;27;20460;-68
2023/05/07 02:39:37;;;;;;;4.47;4.37;;;14.40;99.90;;;;;;5146613;27;20488;-69
2023/05/07 02:42:05;;;;;;;4.27;4.17;;;14.40;99.90;;;;;;5142832;27;20542;-69
2023/05/07 02:44:32;;;;;;;4.60;4.50;;;14.30;99.90;;;;;;5143946;27;22277;-67
2023/05/07 02:47:00;;;;;;;4.43;4.33;;;14.40;99.90;;;;;;5152135;27;20459;-68
2023/05/07 02:49:27;;;;;;;4.23;4.13;;;14.30;99.90;;;;;;5143616;27;20472;-68
2023/05/07 02:51:55;;;;;;;3.87;3.77;;;14.30;99.90;;;;;;5146588;27;20528;-68
2023/05/07 02:54:22;;;;;;;4.00;3.90;;;14.30;99.90;;;;;;5140625;27;20486;-67
2023/05/07 02:56:50;;;;;;;4.20;4.10;;;14.30;99.90;;;;;;5147975;27;20519;-67
2023/05/07 02:59:17;;;;;;;4.17;4.07;;;14.30;99.90;;;;;;5151927;27;20503;-68
2023/05/07 03:01:45;;;;;;;4.00;3.90;;;14.30;99.90;;;;;;5152735;27;20533;-69
2023/05/07 03:04:13;;;;;;;4.10;4.00;;;14.20;99.90;;;;;;5146718;27;20531;-67
2023/05/07 03:06:39;;;;;;;3.80;3.70;;;14.20;99.90;;;;;;5144408;27;20451;-67
2023/05/07 03:09:08;;;;;;;3.60;3.50;;;14.20;99.90;;;;;;5149532;27;20462;-68
2023/05/07 03:11:36;;;;;;;4.00;3.90;;;14.20;99.90;;;;;;5144345;27;20458;-68
2023/05/07 03:14:02;;;;;;;4.00;3.90;;;14.10;99.90;;;;;;5138872;27;20491;-68
2023/05/07 03:16:30;;;;;;;4.00;3.90;;;14.10;99.90;;;;;;5146716;27;20451;-68
2023/05/07 03:18:59;;;;;;;3.97;3.87;;;14.10;99.90;;;;;;5152376;27;20519;-68
2023/05/07 03:21:28;;;;;;;3.87;3.77;;;14.00;99.90;;;;;;5139048;27;20951;-69
2023/05/07 03:23:55;;;;;;;4.03;3.93;;;14.00;99.90;;;;;;5139427;27;20463;-68
2023/05/07 03:26:22;;;;;;;4.13;4.03;;;14.00;99.90;;;;;;5145191;27;20521;-68
2023/05/07 03:28:50;;;;;;;4.27;4.17;;;14.00;99.90;;;;;;5148793;27;20467;-68
2023/05/07 03:31:19;;;;;;;3.60;3.50;;;13.90;99.90;;;;;;5142511;27;20478;-68
2023/05/07 03:33:52;;;;;;;4.10;4.00;;;13.90;99.90;;;;;;5151433;27;20465;-68
2023/05/07 03:36:20;;;;;;;4.53;4.43;;;13.80;99.90;;;;;;5143618;27;20517;-68
2023/05/07 03:38:49;;;;;;;4.30;4.20;;;13.80;99.90;;;;;;5151686;27;20459;-68
2023/05/07 03:41:16;;;;;;;4.53;4.43;;;13.90;99.90;;;;;;5141133;27;20512;-67
2023/05/07 03:43:43;;;;;;;4.37;4.27;;;13.80;99.90;;;;;;5144941;27;20900;-68
2023/05/07 03:46:10;;;;;;;4.00;3.90;;;13.80;99.90;;;;;;5144533;27;20858;-68
2023/05/07 03:48:37;;;;;;;4.60;4.50;;;13.80;99.90;;;;;;5147339;27;20476;-68
2023/05/07 03:51:05;;;;;;;4.33;4.23;;;13.80;99.90;;;;;;5149913;27;20942;-68
2023/05/07 03:53:31;;;;;;;4.47;4.37;;;13.70;99.90;;;;;;5137734;27;20985;-68
2023/05/07 03:56:00;;;;;;;5.23;5.03;;;13.70;99.90;;;;;;5137191;27;20464;-68
2023/05/07 03:58:27;;;;;;;4.73;4.63;;;13.70;99.90;;;;;;5151920;27;20471;-69
2023/05/07 04:00:55;;;;;;;4.30;4.20;;;13.70;99.90;;;;;;5152256;27;20447;-68
2023/05/07 04:03:22;;;;;;;4.03;3.93;;;13.60;99.90;;;;;;5137545;27;20467;-68
2023/05/07 04:05:49;;;;;;;4.10;4.00;;;13.60;99.90;;;;;;5137602;27;20460;-68
2023/05/07 04:08:16;;;;;;;3.63;3.53;;;13.60;99.90;;;;;;5143525;27;20518;-68
2023/05/07 04:10:44;;;;;;;3.87;3.77;;;13.70;99.90;;;;;;5150573;27;20475;-69
2023/05/07 04:13:13;;;;;;;3.70;3.60;;;13.70;99.90;;;;;;5134658;27;20467;-68
2023/05/07 04:15:41;;;;;;;3.63;3.53;;;13.90;99.90;;;;;;5149185;27;20475;-68
2023/05/07 04:18:09;;;;;;;3.70;3.60;;;13.90;99.90;;;;;;5144215;27;20536;-69
2023/05/07 04:20:38;;;;;;;3.47;3.37;;;13.90;99.90;;;;;;5138685;27;20910;-68
2023/05/07 04:23:05;;;;;;;3.57;3.47;;;14.00;99.90;;;;;;5149221;27;20458;-68
2023/05/07 04:25:33;;;;;;;3.60;3.50;;;14.10;99.90;;;;;;5140944;27;20495;-68
2023/05/07 04:28:00;;;;;;;3.50;3.40;;;14.20;99.90;;;;;;5148527;27;20872;-67
2023/05/07 04:30:31;;;;;;;3.70;3.60;;;14.20;99.90;;;;;;5143529;27;20452;-68
2023/05/07 04:32:58;;;;;;;3.53;3.40;;;14.40;99.90;;;;;;5142807;27;20523;-68
2023/05/07 04:35:26;;;;;;;2.80;2.70;;;14.40;99.90;;;;;;5150504;27;20467;-68
2023/05/07 04:37:53;;;;;;;4.47;4.27;;;14.40;99.90;;;;;;5139107;27;20455;-68
2023/05/07 04:40:19;;;;;;;2.93;2.83;;;14.40;99.90;;;;;;5141554;27;20471;-69
2023/05/07 04:42:46;;;;;;;2.87;2.77;;;14.50;99.90;;;;;;5141180;27;20482;-68
2023/05/07 04:45:13;;;;;;;2.90;2.80;;;14.50;99.90;;;;;;5141628;27;20487;-68
2023/05/07 04:47:41;;;;;;;3.00;2.90;;;14.60;99.90;;;;;;5148780;27;20515;-68
2023/05/07 04:50:10;;;;;;;4.10;3.90;;;14.60;99.90;;;;;;5135655;27;20476;-68
2023/05/07 04:52:37;;;;;;;3.10;3.00;;;14.70;99.90;;;;;;5139515;27;20459;-68
2023/05/07 04:55:05;;;;;;;3.20;3.10;;;14.70;99.90;;;;;;5145126;27;20811;-69
2023/05/07 04:57:34;;;;;;;3.03;2.93;;;14.70;99.90;;;;;;5149309;27;20466;-68
2023/05/07 05:00:02;;;;;;;2.87;2.77;;;14.80;99.90;;;;;;5146299;27;20452;-68
2023/05/07 05:02:29;;;;;;;3.07;2.97;;;14.80;99.90;;;;;;5141448;27;20468;-69
2023/05/07 05:04:58;;;;;;;2.70;2.60;;;14.90;99.90;;;;;;5135637;27;20488;-69
2023/05/07 05:07:25;;;;;;;3.33;3.23;;;15.00;99.90;;;;;;5136009;27;20829;-69
2023/05/07 05:09:52;;;;;;;3.00;2.90;;;15.00;99.90;;;;;;5144239;27;20468;-68
2023/05/07 05:12:20;;;;;;;2.87;2.77;;;15.10;99.90;;;;;;5144283;27;20842;-69
2023/05/07 05:14:46;;;;;;;3.00;2.90;;;15.20;99.90;;;;;;5147262;27;20496;-70
2023/05/07 05:17:16;;;;;;;3.10;3.00;;;15.20;99.90;;;;;;5140933;27;20712;-68
2023/05/07 05:19:44;;;;;;;3.03;2.93;;;15.30;99.90;;;;;;5141905;27;20470;-68
2023/05/07 05:22:12;;;;;;;3.40;3.30;;;15.20;99.90;;;;;;5138506;27;20551;-68
2023/05/07 05:24:42;;;;;;;3.30;3.20;;;15.30;99.90;;;;;;5149083;27;20847;-69
2023/05/07 05:27:08;;;;;;;3.53;3.43;;;15.40;99.90;;;;;;5137754;27;20509;-68
2023/05/07 05:29:35;;;;;;;3.80;3.70;;;15.50;99.90;;;;;;5136327;27;20459;-69
2023/05/07 05:32:02;;;;;;;3.57;3.47;;;15.50;99.90;;;;;;5143946;27;20459;-68
2023/05/07 05:34:29;;;;;;;4.40;3.90;;;15.60;99.90;;;;;;5140828;27;20468;-68
2023/05/07 05:36:57;;;;;;;3.87;3.77;;;15.60;99.90;;;;;;5139985;27;20702;-68
2023/05/07 05:39:27;;;;;;;3.80;3.70;;;15.60;99.90;;;;;;5145201;27;20459;-68
2023/05/07 05:41:54;;;;;;;3.40;3.30;;;15.60;99.90;;;;;;5139940;27;21335;-69
2023/05/07 05:44:21;;;;;;;4.13;4.03;;;15.70;99.90;;;;;;5143006;27;20591;-68
2023/05/07 05:46:49;;;;;;;4.60;4.40;;;15.70;99.90;;;;;;5142394;27;20483;-68
2023/05/07 05:49:16;;;;;;;4.20;4.10;;;15.80;99.90;;;;;;5137818;27;20498;-68
2023/05/07 05:51:43;;;;;;;6.70;5.53;;;16.00;99.90;;;;;;5143675;27;20467;-68
2023/05/07 05:54:11;;;;;;;4.30;4.20;;;16.10;99.90;;;;;;5142940;27;20468;-68
2023/05/07 05:56:39;;;;;;;4.47;4.37;;;16.10;99.90;;;;;;5142574;27;20471;-69
2023/05/07 05:59:06;;;;;;;4.90;4.70;;;16.30;99.90;;;;;;5136307;27;20501;-70
2023/05/07 06:01:33;;;;;;;4.67;4.57;;;16.20;99.90;;;;;;5132857;27;20515;-69
2023/05/07 06:04:00;;;;;;;4.40;4.30;;;16.10;99.90;;;;;;5140157;27;20491;-68
2023/05/07 06:06:28;;;;;;;4.90;4.80;;;16.10;99.90;;;;;;5139798;27;20459;-68
2023/05/07 06:08:55;;;;;;;4.57;4.47;;;16.10;99.90;;;;;;5137307;27;20555;-68
2023/05/07 06:11:22;;;;;;;5.20;5.00;;;16.10;99.90;;;;;;5142984;27;20570;-68
2023/05/07 06:13:51;;;;;;;5.10;5.00;;;16.20;99.90;;;;;;5139040;27;20466;-68
2023/05/07 06:16:17;;;;;;;4.50;4.40;;;16.30;99.90;;;;;;5142728;27;20829;-69
2023/05/07 06:18:45;;;;;;;5.57;5.37;;;16.60;99.90;;;;;;5141097;27;20583;-69
2023/05/07 06:21:11;;;;;;;6.87;6.57;;;16.80;99.90;;;;;;5138498;27;20444;-68
2023/05/07 06:23:40;;;;;;;4.80;4.70;;;17.00;99.90;;;;;;5142591;27;20504;-68
2023/05/07 06:26:07;;;;;;;5.20;5.10;;;17.10;99.90;;;;;;5135934;27;20584;-68
2023/05/07 06:28:35;;;;;;;5.40;5.20;;;17.00;99.90;;;;;;5139791;27;20467;-68
2023/05/07 06:31:13;;;;;;;6.03;5.83;;;17.10;99.90;;;;;;5142644;27;20454;-68
2023/05/07 06:33:40;;;;;;;5.40;5.20;;;17.20;99.90;;;;;;5140574;27;20520;-68
2023/05/07 06:36:07;;;;;;;6.00;5.67;;;17.40;99.90;;;;;;5133870;27;20579;-68
2023/05/07 06:38:34;;;;;;;5.90;5.70;;;17.60;99.90;;;;;;5140656;27;20463;-69
2023/05/07 06:41:01;;;;;;;6.20;6.00;;;17.60;99.90;;;;;;5136545;27;21037;-68
2023/05/07 06:43:28;;;;;;;7.00;6.80;;;17.70;99.90;;;;;;5137592;27;20470;-65
2023/05/07 06:45:55;;;;;;;6.90;6.70;;;17.90;99.90;;;;;;5138417;27;20524;-65
2023/05/07 06:48:24;;;;;;;6.90;6.70;;;18.10;99.90;;;;;;5136413;27;20486;-66
2023/05/07 06:50:51;;;;;;;7.00;6.80;;;18.20;99.90;;;;;;5133181;27;20452;-65
2023/05/07 06:53:18;;;;;;;7.10;6.90;;;18.10;99.90;;;;;;5134882;27;20904;-66
2023/05/07 06:55:46;;;;;;;7.20;7.00;;;18.30;99.90;;;;;;5141894;27;20463;-66
2023/05/07 06:58:14;;;;;;;7.30;7.10;;;18.30;99.90;;;;;;5135754;27;20478;-66
2023/05/07 07:00:41;;;;;;;7.73;7.53;;;18.50;99.90;;;;;;5138536;27;21004;-67
2023/05/07 07:03:07;;;;;;;7.70;7.47;;;18.50;99.90;;;;;;5139135;27;20455;-67
2023/05/07 07:05:37;;;;;;;8.60;8.30;;;18.70;99.90;;;;;;5144806;27;20499;-67
2023/05/07 07:08:04;;;;;;;8.80;8.50;;;18.90;99.90;;;;;;5144424;27;20523;-67
2023/05/07 07:10:31;;;;;;;9.23;8.93;;;19.20;99.90;;;;;;5146895;27;20470;-68
2023/05/07 07:12:58;;;;;;;9.43;9.13;;;19.30;99.90;;;;;;5148137;27;20928;-67
2023/05/07 07:15:25;;;;;;;9.20;8.90;;;19.50;99.90;;;;;;5145399;27;20523;-68
2023/05/07 07:17:53;;;;;;;10.33;9.93;;;19.80;99.90;;;;;;5132161;27;21042;-68
2023/05/07 07:20:21;;;;;;;10.30;9.90;;;20.00;99.90;;;;;;5147612;27;20843;-68
2023/05/07 07:22:51;;;;;;;11.00;10.60;;;20.20;99.90;;;;;;5144650;27;20514;-68
2023/05/07 07:25:19;;;;;;;10.77;10.37;;;20.60;99.90;;;;;;5136063;27;20619;-68
2023/05/07 07:27:45;;;;;;;11.53;11.13;;;20.50;99.90;;;;;;5130245;27;20860;-68
2023/05/07 07:30:13;;;;;;;10.70;10.30;;;20.80;99.90;;;;;;5145127;27;20511;-68
2023/05/07 07:32:40;;;;;;;10.80;10.40;;;20.90;99.90;;;;;;5149615;27;20451;-68
2023/05/07 07:35:08;;;;;;;12.20;11.70;;;21.10;99.90;;;;;;5139013;27;20546;-68
2023/05/07 07:37:36;;;;;;;11.53;11.13;;;21.00;99.90;;;;;;5139869;27;20455;-68
2023/05/07 07:40:06;;;;;;;10.87;10.47;;;20.90;99.90;;;;;;5134877;27;20460;-69
2023/05/07 07:42:32;;;;;;;11.00;10.60;;;21.10;99.90;;;;;;5142750;27;20495;-68
2023/05/07 07:44:59;;;;;;;11.20;10.80;;;21.50;99.90;;;;;;5137587;27;20484;-68
2023/05/07 07:47:27;;;;;;;11.63;11.20;;;21.70;99.90;;;;;;5136177;27;20456;-69
2023/05/07 07:49:54;;;;;;;11.00;10.60;;;22.00;99.90;;;;;;5138382;27;20463;-68
2023/05/07 07:52:21;;;;;;;12.87;12.37;;;22.10;99.90;;;;;;5141392;27;20810;-68
2023/05/07 07:54:48;;;;;;;12.23;11.77;;;22.00;99.90;;;;;;5134361;27;21070;-69
2023/05/07 07:57:16;;;;;;;11.80;11.40;;;22.10;99.90;;;;;;5140586;27;20456;-68
2023/05/07 07:59:43;;;;;;;12.20;11.70;;;22.40;99.90;;;;;;5142229;27;21262;-68
2023/05/07 08:02:10;;;;;;;11.93;11.53;;;22.80;99.90;;;;;;5145582;27;20546;-68
2023/05/07 08:04:37;;;;;;;12.90;12.40;;;22.90;99.90;;;;;;5144704;27;21083;-68
2023/05/07 08:07:04;;;;;;;12.57;12.07;;;23.10;99.90;;;;;;5139834;27;20925;-68
2023/05/07 08:09:31;;;;;;;12.57;11.97;;;23.20;99.90;;;;;;5144950;27;20969;-68
2023/05/07 08:11:58;;;;;;;12.40;11.90;;;23.20;99.90;;;;;;5142433;27;20826;-68
2023/05/07 08:14:28;;;;;;;11.97;11.57;;;23.20;99.90;;;;;;5135872;27;21064;-68
2023/05/07 08:16:54;;;;;;;11.90;11.50;;;23.70;99.90;;;;;;5141515;27;20478;-68
2023/05/07 08:19:21;;;;;;;11.87;11.47;;;23.90;99.90;;;;;;5139027;27;20464;-68
2023/05/07 08:21:48;;;;;;;12.67;12.17;;;24.10;99.90;;;;;;5141169;27;20448;-68
2023/05/07 08:24:16;;;;;;;11.47;11.07;;;24.20;99.90;;;;;;5140155;27;20455;-69
2023/05/07 08:26:44;;;;;;;12.47;11.97;;;24.10;99.90;;;;;;5131528;27;20496;-68
2023/05/07 08:29:11;;;;;;;12.23;11.73;;;24.60;99.90;;;;;;5144591;27;20861;-68
2023/05/07 08:31:39;;;;;;;11.97;11.53;;;25.10;99.90;;;;;;5150463;27;20459;-68
2023/05/07 08:34:07;;;;;;;12.63;12.13;;;25.30;99.90;;;;;;5148415;27;20519;-68
2023/05/07 08:36:34;;;;;;;12.00;11.53;;;25.90;99.90;;;;;;5136668;27;20539;-68
2023/05/07 08:39:02;;;;;;;12.50;12.00;;;26.30;99.90;;;;;;5140983;27;20518;-68
2023/05/07 08:41:30;;;;;;;12.57;12.07;;;26.20;99.90;;;;;;5133823;27;20978;-67
2023/05/07 08:44:01;;;;;;;12.27;11.77;;;26.00;99.90;;;;;;5145668;27;20869;-67
2023/05/07 08:46:32;;;;;;;12.60;12.10;;;25.90;99.90;;;;;;5139741;27;20486;-67
2023/05/07 08:49:01;;;;;;;11.80;11.40;;;26.10;99.90;;;;;;5126322;27;20483;-67
2023/05/07 08:51:28;;;;;;;12.40;11.90;;;25.70;99.90;;;;;;5144300;27;20462;-68
2023/05/07 08:53:57;;;;;;;12.17;11.67;;;25.60;99.90;;;;;;5144799;27;20455;-68
2023/05/07 08:56:25;;;;;;;11.30;10.90;;;25.40;99.90;;;;;;5140013;27;20464;-68
2023/05/07 08:58:56;;;;;;;12.30;11.80;;;25.40;99.90;;;;;;5143778;27;20484;-68
2023/05/07 09:01:23;;;;;;;11.90;11.50;;;25.60;99.90;;;;;;5144247;27;20546;-68
2023/05/07 09:03:51;;;;;;;11.97;11.57;;;25.70;99.90;;;;;;5142353;27;20503;-68
2023/05/07 09:06:21;;;;;;;12.50;12.00;;;25.80;99.90;;;;;;5136482;27;20998;-67
2023/05/07 09:08:51;;;;;;;12.10;11.70;;;26.30;99.90;;;;;;5133988;27;20460;-67
2023/05/07 09:11:22;;;;;;;13.30;12.80;;;26.70;99.90;;;;;;5139445;27;20466;-68
2023/05/07 09:13:49;;;;;;;13.10;12.60;;;27.30;99.90;;;;;;5142394;27;20575;-67
2023/05/07 09:16:17;;;;;;;13.10;12.60;;;27.30;99.90;;;;;;5147506;27;20971;-67
2023/05/07 09:18:44;;;;;;;13.23;12.73;;;27.10;99.90;;;;;;5142306;27;20459;-67
2023/05/07 09:21:12;;;;;;;13.73;13.23;;;26.90;99.90;;;;;;5130337;27;20451;-68
2023/05/07 09:23:41;;;;;;;13.87;13.37;;;26.90;99.90;;;;;;5146908;27;20818;-67
2023/05/07 09:26:11;;;;;;;13.07;12.57;;;27.20;99.90;;;;;;5145999;27;20460;-66
2023/05/07 09:28:41;;;;;;;13.70;13.20;;;27.50;99.90;;;;;;5136766;27;20490;-67
2023/05/07 09:31:08;;;;;;;13.70;13.20;;;27.80;99.90;;;;;;5139047;27;20547;-67
2023/05/07 09:33:36;;;;;;;13.80;13.30;;;27.90;99.90;;;;;;5148704;27;20543;-68
2023/05/07 09:36:06;;;;;;;14.27;13.70;;;28.30;99.90;;;;;;5135816;27;20479;-68
2023/05/07 09:38:34;;;;;;;15.67;14.97;;;28.40;99.90;;;;;;5140455;27;20452;-67
2023/05/07 09:41:06;;;;;;;15.23;14.63;;;28.30;99.90;;;;;;5140014;27;20796;-67
2023/05/07 09:43:34;;;;;;;13.93;13.40;;;28.30;99.90;;;;;;5137799;27;20460;-68
2023/05/07 09:46:04;;;;;;;14.00;13.40;;;28.60;99.90;;;;;;5146654;27;20483;-67
2023/05/07 09:48:32;;;;;;;14.57;13.97;;;28.60;99.90;;;;;;5134927;27;20542;-67
2023/05/07 09:51:03;;;;;;;15.00;14.40;;;29.10;99.90;;;;;;5143839;27;20508;-68
2023/05/07 09:53:32;;;;;;;16.00;15.30;;;28.70;99.90;;;;;;5136401;27;20456;-68
2023/05/07 09:55:59;;;;;;;15.40;14.70;;;28.70;99.90;;;;;;5143140;27;20486;-68
2023/05/07 09:58:29;;;;;;;15.30;14.60;;;27.60;99.90;;;;;;5136876;27;20456;-68
2023/05/07 10:00:57;;;;;;;15.57;14.87;;;27.90;99.90;;;;;;5139671;27;20462;-68
2023/05/07 10:03:28;;;;;;;15.70;15.00;;;27.90;99.90;;;;;;5145915;27;20455;-68
2023/05/07 10:05:56;;;;;;;15.03;14.43;;;27.80;99.90;;;;;;5133286;27;20467;-68
2023/05/07 10:08:23;;;;;;;15.10;14.50;;;27.90;99.90;;;;;;5137208;27;20464;-68
2023/05/07 10:10:50;;;;;;;14.83;14.23;;;28.00;99.90;;;;;;5144654;27;20466;-68
2023/05/07 10:13:20;;;;;;;15.20;14.60;;;28.00;99.90;;;;;;5133896;27;20520;-68
2023/05/07 10:15:49;;;;;;;14.80;14.20;;;27.60;99.90;;;;;;5140411;27;20471;-68
2023/05/07 10:18:17;;;;;;;14.50;13.90;;;27.40;99.90;;;;;;5137025;27;20464;-68
2023/05/07 10:20:47;;;;;;;14.23;13.63;;;27.30;99.90;;;;;;5129822;27;20892;-68
2023/05/07 10:23:18;;;;;;;13.70;13.10;;;26.80;99.90;;;;;;5141342;27;20547;-68
2023/05/07 10:25:45;;;;;;;14.57;13.97;;;26.80;99.90;;;;;;5141106;27;20467;-68
2023/05/07 10:28:13;;;;;;;14.33;13.73;;;27.50;99.90;;;;;;5137217;27;20473;-68
2023/05/07 10:30:53;;;;;;;14.90;14.30;;;27.50;99.90;;;;;;5137923;27;20451;-68
2023/05/07 10:33:25;;;;;;;14.20;13.60;;;27.10;99.90;;;;;;5135741;27;20467;-68
2023/05/07 10:35:56;;;;;;;14.80;14.20;;;26.80;99.90;;;;;;5136812;27;20514;-69
2023/05/07 10:38:25;;;;;;;14.40;13.80;;;27.10;99.90;;;;;;5143148;27;20970;-69
2023/05/07 10:40:52;;;;;;;14.80;14.20;;;26.90;99.90;;;;;;5136884;27;20459;-69
2023/05/07 10:43:19;;;;;;;14.50;13.90;;;26.80;99.90;;;;;;5134427;27;20614;-69
2023/05/07 10:46:12;;;;;;;14.93;14.23;;;26.70;99.90;;;;;;5142784;27;20455;-69
2023/05/07 10:49:08;;;;;;;14.63;14.03;;;27.10;99.90;;;;;;5140600;27;20546;-68
2023/05/07 10:51:36;;;;;;;14.97;14.37;;;27.20;99.90;;;;;;5134422;27;21243;-68
2023/05/07 10:54:22;;;;;;;14.70;14.10;;;27.50;99.90;;;;;;5138239;27;20992;-69
2023/05/07 10:56:50;;;;;;;14.83;14.23;;;27.60;99.90;;;;;;5136953;27;20644;-68
2023/05/07 10:59:41;;;;;;;15.10;14.50;;;27.00;99.90;;;;;;5137257;27;20938;-69
2023/05/07 11:02:13;;;;;;;14.83;14.23;;;27.20;99.90;;;;;;5133591;27;20910;-68
2023/05/07 11:04:41;;;;;;;14.80;14.20;;;27.10;99.90;;;;;;5142659;27;20542;-69
2023/05/07 11:07:26;;;;;;;15.00;14.40;;;27.20;99.90;;;;;;5139899;27;20464;-69
2023/05/07 11:10:07;;;;;;;15.67;15.00;;;27.40;99.90;;;;;;5140295;27;20459;-68
2023/05/07 11:12:56;;;;;;;16.90;15.97;;;27.80;99.90;;;;;;5145599;27;20640;-68
2023/05/07 11:15:43;;;;;;;15.70;15.00;;;27.60;99.90;;;;;;5142436;27;20525;-69
2023/05/07 11:18:13;;;;;;;14.50;13.90;;;27.20;99.90;;;;;;5139932;27;20468;-68
2023/05/07 11:20:48;;;;;;;15.40;14.70;;;27.30;99.90;;;;;;5135313;27;21198;-69
2023/05/07 11:23:57;;;;;;;15.07;14.47;;;27.60;99.90;;;;;;5135501;27;20455;-68
2023/05/07 11:26:25;;;;;;;14.60;14.00;;;27.10;99.90;;;;;;5135975;27;21001;-69
2023/05/07 11:28:53;;;;;;;16.30;15.60;;;27.10;99.90;;;;;;5139230;27;20867;-68
2023/05/07 11:31:23;;;;;;;14.40;13.80;;;27.50;99.90;;;;;;5142473;27;20799;-70
2023/05/07 11:33:52;;;;;;;14.07;13.50;;;27.40;99.90;;;;;;5142004;27;20856;-69
2023/05/07 11:36:20;;;;;;;15.03;14.23;;;27.50;99.90;;;;;;5138298;27;20491;-68
2023/05/07 11:38:47;;;;;;;15.40;14.80;;;27.70;99.90;;;;;;5144906;27;20478;-69
2023/05/07 11:41:14;;;;;;;14.60;14.00;;;27.30;99.90;;;;;;5135419;27;20670;-69
2023/05/07 11:43:56;;;;;;;15.60;14.90;;;27.00;99.90;;;;;;5139068;27;20954;-68
2023/05/07 11:46:23;;;;;;;15.50;14.90;;;27.00;99.90;;;;;;5143911;27;20471;-68
2023/05/07 11:48:51;;;;;;;14.73;14.13;;;27.00;99.90;;;;;;5139878;27;20452;-68
2023/05/07 11:51:22;;;;;;;14.70;14.10;;;27.20;99.90;;;;;;5142766;27;21267;-68
2023/05/07 11:53:49;;;;;;;14.70;14.10;;;27.00;99.90;;;;;;5142750;27;20451;-68
2023/05/07 11:56:17;;;;;;;14.60;14.00;;;27.00;99.90;;;;;;5132926;27;20485;-68
2023/05/07 11:58:46;;;;;;;14.70;14.10;;;26.80;99.90;;;;;;5144549;27;20459;-67
2023/05/07 12:01:14;;;;;;;15.13;14.53;;;26.50;99.90;;;;;;5148590;27;20459;-68
2023/05/07 12:03:43;;;;;;;14.53;13.93;;;26.10;99.90;;;;;;5135689;27;20490;-68
2023/05/07 12:06:13;;;;;;;14.90;14.30;;;26.20;99.90;;;;;;5141542;27;20554;-69
2023/05/07 12:08:40;;;;;;;14.60;14.00;;;26.50;99.90;;;;;;5136197;27;20547;-68
2023/05/07 12:11:13;;;;;;;14.93;14.33;;;26.30;99.90;;;;;;5142095;27;20497;-68
2023/05/07 12:13:40;;;;;;;14.63;14.03;;;26.10;99.90;;;;;;5137711;27;20784;-68
2023/05/07 12:16:08;;;;;;;14.27;13.67;;;25.80;99.90;;;;;;5143515;27;20528;-67
2023/05/07 12:18:38;;;;;;;13.60;13.10;;;25.80;99.90;;;;;;5139337;27;21023;-67
2023/05/07 12:21:07;;;;;;;14.03;13.43;;;25.90;99.90;;;;;;5148403;27;20471;-68
2023/05/07 12:23:37;;;;;;;14.00;13.40;;;25.70;99.90;;;;;;5137672;27;20512;-67
2023/05/07 12:26:06;;;;;;;14.53;13.93;;;25.30;99.90;;;;;;5147198;27;20447;-68
2023/05/07 12:28:39;;;;;;;15.00;14.40;;;25.10;99.90;;;;;;5142533;27;20464;-68
2023/05/07 12:31:06;;;;;;;13.80;13.30;;;25.10;99.90;;;;;;5141612;27;20993;-68
2023/05/07 12:33:33;;;;;;;15.20;14.60;;;25.10;99.90;;;;;;5138452;27;21264;-68
2023/05/07 12:36:06;;;;;;;14.20;13.60;;;25.10;99.90;;;;;;5146554;27;20946;-68
2023/05/07 12:38:38;;;;;;;14.20;13.60;;;25.20;99.90;;;;;;5142789;27;20451;-67
2023/05/07 12:41:07;;;;;;;13.63;13.13;;;24.90;99.90;;;;;;5140236;27;20554;-68
2023/05/07 12:43:33;;;;;;;13.20;12.67;;;24.90;99.90;;;;;;5141006;27;20792;-68
2023/05/07 12:46:03;;;;;;;13.50;13.00;;;25.10;99.90;;;;;;5147986;27;20559;-68